createdAt,value
2019-03-29T00:00:47.122Z,5.35
2019-03-29T00:03:19.164Z,5.22
2019-03-29T00:05:50.094Z,6.22
2019-03-29T00:08:21.363Z,6.37
2019-03-29T00:10:52.226Z,6.20
2019-03-29T00:13:23.457Z,5.47
2019-03-29T00:15:55.965Z,5.90
2019-03-29T00:18:45.699Z,5.47
2019-03-29T00:21:16.677Z,6.30
2019-03-29T00:23:48.379Z,5.97
2019-03-29T00:26:20.038Z,6.47
2019-03-29T00:28:51.029Z,6.47
2019-03-29T00:31:22.048Z,6.60
2019-03-29T00:33:53.115Z,6.30
2019-03-29T00:36:24.321Z,5.80
2019-03-29T00:38:55.278Z,6.42
2019-03-29T00:41:26.267Z,6.30
2019-03-29T00:43:57.076Z,5.95
2019-03-29T00:46:28.059Z,6.58
2019-03-29T00:48:58.971Z,6.28
2019-03-29T00:51:29.925Z,6.33
2019-03-29T00:54:01.933Z,6.67
2019-03-29T00:56:33.291Z,6.40
2019-03-29T00:59:04.271Z,6.22
2019-03-29T01:01:35.267Z,6.78
2019-03-29T01:04:06.343Z,6.40
2019-03-29T01:06:37.252Z,6.70
2019-03-29T01:09:09.291Z,7.28
2019-03-29T01:11:41.084Z,6.28
2019-03-29T01:14:12.419Z,6.90
2019-03-29T01:16:43.408Z,7.03
2019-03-29T01:19:14.344Z,7.42
2019-03-29T01:21:45.315Z,6.87
2019-03-29T01:24:16.230Z,7.08
2019-03-29T01:26:47.115Z,6.62
2019-03-29T01:29:18.027Z,7.45
2019-03-29T01:31:48.959Z,7.22
2019-03-29T01:34:19.884Z,6.87
2019-03-29T01:36:50.782Z,7.17
2019-03-29T01:39:40.590Z,7.15
2019-03-29T01:42:11.724Z,7.25
2019-03-29T01:44:42.748Z,6.78
2019-03-29T01:47:13.750Z,7.45
2019-03-29T01:49:44.761Z,7.60
2019-03-29T01:52:15.599Z,6.97
2019-03-29T01:54:46.368Z,7.08
2019-03-29T01:57:17.258Z,7.58
2019-03-29T01:59:48.205Z,7.35
2019-03-29T02:02:19.274Z,7.80
2019-03-29T02:04:50.090Z,7.62
2019-03-29T02:07:20.930Z,8.43
2019-03-29T02:09:51.839Z,7.22
2019-03-29T02:12:22.743Z,8.08
2019-03-29T02:14:53.549Z,7.67
2019-03-29T02:17:24.401Z,8.10
2019-03-29T02:19:55.215Z,8.10
2019-03-29T02:22:26.024Z,8.38
2019-03-29T02:24:57.041Z,8.33
2019-03-29T02:27:27.887Z,8.85
2019-03-29T02:29:58.808Z,8.50
2019-03-29T02:32:29.733Z,7.80
2019-03-29T02:35:00.591Z,8.35
2019-03-29T02:37:31.729Z,8.18
2019-03-29T02:40:02.705Z,9.15
2019-03-29T02:42:33.726Z,8.35
2019-03-29T02:45:04.711Z,8.58
2019-03-29T02:47:35.768Z,8.60
2019-03-29T02:50:08.620Z,8.75
2019-03-29T02:52:39.339Z,9.00
2019-03-29T02:55:10.333Z,8.53
2019-03-29T02:57:41.261Z,9.23
2019-03-29T03:00:12.187Z,9.03
2019-03-29T03:02:43.083Z,9.00
2019-03-29T03:05:13.907Z,9.13
2019-03-29T03:07:44.860Z,9.08
2019-03-29T03:10:15.730Z,8.90
2019-03-29T03:12:46.593Z,9.70
2019-03-29T03:15:17.356Z,10.18
2019-03-29T03:17:48.413Z,9.00
2019-03-29T03:20:19.274Z,9.38
2019-03-29T03:22:50.145Z,9.60
2019-03-29T03:25:21.112Z,10.23
2019-03-29T03:27:52.194Z,9.58
2019-03-29T03:30:23.101Z,9.60
2019-03-29T03:32:54.060Z,10.15
2019-03-29T03:35:24.946Z,9.70
2019-03-29T03:37:55.887Z,9.73
2019-03-29T03:40:26.678Z,9.63
2019-03-29T03:42:57.598Z,9.88
2019-03-29T03:45:28.463Z,10.55
2019-03-29T03:47:59.440Z,10.98
2019-03-29T03:50:38.802Z,10.45
2019-03-29T03:53:09.986Z,10.38
2019-03-29T03:55:41.062Z,10.00
2019-03-29T03:58:12.792Z,10.82
2019-03-29T04:00:54.584Z,10.05
2019-03-29T04:03:25.748Z,10.40
2019-03-29T04:05:56.780Z,9.98
2019-03-29T04:08:28.011Z,10.00
2019-03-29T04:10:58.939Z,11.05
2019-03-29T04:13:29.891Z,11.33
2019-03-29T04:16:01.002Z,11.57
2019-03-29T04:18:32.104Z,10.68
2019-03-29T04:21:02.989Z,10.23
2019-03-29T04:23:33.896Z,10.90
2019-03-29T04:26:04.736Z,10.63
2019-03-29T04:28:35.626Z,10.38
2019-03-29T04:31:06.543Z,10.65
2019-03-29T04:33:37.385Z,11.00
2019-03-29T04:36:08.217Z,10.85
2019-03-29T04:38:39.190Z,10.95
2019-03-29T04:41:10.099Z,10.78
2019-03-29T04:43:41.009Z,10.40
2019-03-29T04:46:11.944Z,10.25
2019-03-29T04:48:42.861Z,10.90
2019-03-29T04:51:13.778Z,10.82
2019-03-29T04:53:44.802Z,10.28
2019-03-29T04:56:15.923Z,11.22
2019-03-29T04:58:46.902Z,10.45
2019-03-29T05:01:17.885Z,10.65
2019-03-29T05:03:48.824Z,9.75
2019-03-29T05:06:19.752Z,10.30
2019-03-29T05:08:50.603Z,10.20
2019-03-29T05:11:21.694Z,10.40
2019-03-29T05:13:52.630Z,10.43
2019-03-29T05:16:23.489Z,10.72
2019-03-29T05:18:54.557Z,10.98
2019-03-29T05:21:25.444Z,10.05
2019-03-29T05:23:56.344Z,10.78
2019-03-29T05:26:27.243Z,10.95
2019-03-29T05:28:58.178Z,10.40
2019-03-29T05:31:29.096Z,10.90
2019-03-29T05:33:59.989Z,10.55
2019-03-29T05:36:30.943Z,10.68
2019-03-29T05:39:01.899Z,10.95
2019-03-29T05:41:34.156Z,10.28
2019-03-29T05:44:16.644Z,10.43
2019-03-29T05:46:47.620Z,10.18
2019-03-29T05:49:18.496Z,9.68
2019-03-29T05:51:49.348Z,9.35
2019-03-29T05:54:31.419Z,9.68
2019-03-29T05:57:02.330Z,9.70
2019-03-29T05:59:33.220Z,10.72
2019-03-29T06:02:04.087Z,10.28
2019-03-29T06:04:34.928Z,9.73
2019-03-29T06:07:06.228Z,9.85
2019-03-29T06:09:37.391Z,9.95
2019-03-29T06:12:08.330Z,9.90
2019-03-29T06:14:39.270Z,9.65
2019-03-29T06:17:10.147Z,9.93
2019-03-29T06:19:41.335Z,9.35
2019-03-29T06:22:12.217Z,9.55
2019-03-29T06:24:43.289Z,9.25
2019-03-29T06:27:14.453Z,10.03
2019-03-29T06:29:47.356Z,9.08
2019-03-29T06:32:18.312Z,9.45
2019-03-29T06:34:50.340Z,9.58
2019-03-29T06:37:42.306Z,9.68
2019-03-29T06:40:19.876Z,9.68
2019-03-29T06:42:50.927Z,10.93
2019-03-29T06:45:22.164Z,11.00
2019-03-29T06:47:53.097Z,10.32
2019-03-29T06:50:23.913Z,10.58
2019-03-29T06:52:55.876Z,10.63
2019-03-29T06:55:27.025Z,10.23
2019-03-29T06:57:58.107Z,10.63
2019-03-29T07:00:29.014Z,9.55
2019-03-29T07:02:59.944Z,9.88
2019-03-29T07:05:30.783Z,9.10
2019-03-29T07:08:01.737Z,9.93
2019-03-29T07:10:32.725Z,13.00
2019-03-29T07:13:03.787Z,12.28
2019-03-29T07:15:36.927Z,17.12
2019-03-29T07:18:09.933Z,17.73
2019-03-29T07:20:41.491Z,18.32
2019-03-29T07:23:14.512Z,21.25
2019-03-29T07:25:48.710Z,19.05
2019-03-29T07:28:26.046Z,19.55
2019-03-29T07:31:06.290Z,18.62
2019-03-29T07:33:38.968Z,16.80
2019-03-29T07:36:19.483Z,15.40
2019-03-29T07:38:58.803Z,15.25
2019-03-29T07:41:32.086Z,14.93
2019-03-29T07:44:03.456Z,13.62
2019-03-29T07:46:38.481Z,13.88
2019-03-29T07:49:19.738Z,12.65
2019-03-29T07:52:38.231Z,13.53
2019-03-29T07:55:16.949Z,11.53
2019-03-29T07:57:50.655Z,11.38
2019-03-29T08:00:29.217Z,10.82
2019-03-29T08:03:00.577Z,10.43
2019-03-29T08:05:35.366Z,10.38
2019-03-29T08:08:22.693Z,9.18
2019-03-29T08:10:42.184Z,9.38
2019-03-29T08:13:13.143Z,10.25
2019-03-29T08:15:45.526Z,9.03
2019-03-29T08:18:18.080Z,9.08
2019-03-29T08:20:51.041Z,7.85
2019-03-29T08:23:22.786Z,7.40
2019-03-29T08:25:58.679Z,7.62
2019-03-29T08:28:31.414Z,7.47
2019-03-29T08:31:04.157Z,7.20
2019-03-29T08:33:35.632Z,7.35
2019-03-29T08:36:06.527Z,7.12
2019-03-29T08:38:38.770Z,6.72
2019-03-29T08:41:10.125Z,6.67
2019-03-29T08:43:42.773Z,6.40
2019-03-29T08:46:21.477Z,6.58
2019-03-29T08:48:52.979Z,6.62
2019-03-29T08:51:26.836Z,6.03
2019-03-29T08:54:04.004Z,6.10
2019-03-29T08:56:31.988Z,6.12
2019-03-29T08:59:05.814Z,5.78
2019-03-29T09:01:37.279Z,5.25
2019-03-29T09:04:11.639Z,5.45
2019-03-29T09:06:53.422Z,5.45
2019-03-29T09:09:17.966Z,5.90
2019-03-29T09:11:49.776Z,5.62
2019-03-29T09:14:21.728Z,5.72
2019-03-29T09:19:48.287Z,5.53
2019-03-29T09:22:22.039Z,5.62
2019-03-29T09:27:42.757Z,6.05
2019-03-29T09:33:15.579Z,4.92
2019-03-29T09:35:49.471Z,5.45
2019-03-29T09:38:29.130Z,6.22
2019-03-29T09:41:00.887Z,5.35
2019-03-29T09:43:32.326Z,4.90
2019-03-29T09:46:08.733Z,6.00
2019-03-29T09:48:45.751Z,5.45
2019-03-29T09:51:19.741Z,5.20
2019-03-29T09:53:52.674Z,5.65
2019-03-29T09:56:38.644Z,6.42
2019-03-29T09:59:08.454Z,5.78
2019-03-29T10:04:28.925Z,6.42
2019-03-29T10:07:08.625Z,6.10
2019-03-29T10:09:48.438Z,6.92
2019-03-29T10:18:09.052Z,17.37
2019-03-29T10:20:41.854Z,11.73
2019-03-29T10:23:18.177Z,11.05
2019-03-29T10:25:58.828Z,10.03
2019-03-29T10:28:30.209Z,8.78
2019-03-29T10:31:01.675Z,10.13
2019-03-29T10:33:51.472Z,8.50
2019-03-29T10:36:24.092Z,7.25
2019-03-29T10:39:04.821Z,7.85
2019-03-29T10:41:40.679Z,8.43
2019-03-29T10:44:19.377Z,7.15
2019-03-29T10:46:59.279Z,6.95
2019-03-29T10:49:40.319Z,7.03
2019-03-29T10:52:21.362Z,7.33
2019-03-29T10:55:04.386Z,7.58
2019-03-29T10:57:40.476Z,8.35
2019-03-29T11:00:31.250Z,6.95
2019-03-29T11:03:03.946Z,7.03
2019-03-29T11:05:39.075Z,7.28
2019-03-29T11:08:12.428Z,7.15
2019-03-29T11:10:44.237Z,6.12
2019-03-29T11:13:17.933Z,6.53
2019-03-29T11:15:49.545Z,5.72
2019-03-29T11:18:21.276Z,6.15
2019-03-29T11:20:54.364Z,5.92
2019-03-29T11:23:28.061Z,5.70
2019-03-29T11:25:59.096Z,5.12
2019-03-29T11:28:32.071Z,5.30
2019-03-29T11:31:07.322Z,6.17
2019-03-29T11:33:41.368Z,5.30
2019-03-29T11:36:13.851Z,6.40
2019-03-29T11:38:59.359Z,5.28
2019-03-29T11:41:34.069Z,5.35
2019-03-29T11:44:09.096Z,5.42
2019-03-29T11:48:29.342Z,4.80
2019-03-29T11:50:29.105Z,4.83
2019-03-29T11:53:37.910Z,6.75
2019-03-29T11:56:06.299Z,5.12
2019-03-29T11:59:15.752Z,7.60
2019-03-29T12:01:25.725Z,5.78
2019-03-29T12:03:59.601Z,6.08
2019-03-29T12:06:34.652Z,6.47
2019-03-29T12:09:17.458Z,6.05
2019-03-29T12:12:18.709Z,5.12
2019-03-29T12:16:17.351Z,4.45
2019-03-29T12:18:14.345Z,6.37
2019-03-29T12:21:14.623Z,5.60
2019-03-29T12:23:59.278Z,5.97
2019-03-29T12:29:39.005Z,4.10
2019-03-29T12:32:54.315Z,4.90
2019-03-29T12:36:47.237Z,5.37
2019-03-29T12:38:59.268Z,4.65
2019-03-29T12:44:42.591Z,5.25
2019-03-29T12:47:17.021Z,4.92
2019-03-29T12:49:49.290Z,4.78
2019-03-29T12:52:22.077Z,4.37
2019-03-29T12:54:56.257Z,4.58
2019-03-29T12:57:38.878Z,4.80
2019-03-29T13:00:14.627Z,4.80
2019-03-29T13:02:56.197Z,4.42
2019-03-29T13:08:13.905Z,4.20
2019-03-29T13:10:47.263Z,3.80
2019-03-29T13:13:27.577Z,4.80
2019-03-29T13:16:01.061Z,4.42
2019-03-29T13:18:33.057Z,4.53
2019-03-29T13:21:16.538Z,4.85
2019-03-29T13:23:48.044Z,5.25
2019-03-29T13:26:21.381Z,4.55
2019-03-29T13:28:58.927Z,4.97
2019-03-29T13:31:31.144Z,4.53
2019-03-29T13:34:04.443Z,4.95
2019-03-29T13:36:36.867Z,4.70
2019-03-29T13:39:10.889Z,4.60
2019-03-29T13:41:42.091Z,5.25
2019-03-29T13:44:23.805Z,4.03
2019-03-29T13:46:48.781Z,4.15
2019-03-29T13:49:19.747Z,4.28
2019-03-29T13:51:50.843Z,4.17
2019-03-29T13:54:22.708Z,4.17
2019-03-29T13:56:59.176Z,4.33
2019-03-29T13:59:31.875Z,4.20
2019-03-29T14:02:10.339Z,4.10
2019-03-29T14:06:34.676Z,4.67
2019-03-29T14:09:29.311Z,4.40
2019-03-29T14:12:04.323Z,4.12
2019-03-29T14:14:38.884Z,4.60
2019-03-29T14:17:11.644Z,4.40
2019-03-29T14:19:42.818Z,4.62
2019-03-29T14:22:16.350Z,4.60
2019-03-29T14:24:48.345Z,4.12
2019-03-29T14:27:22.451Z,4.00
2019-03-29T14:30:04.123Z,4.20
2019-03-29T14:32:30.674Z,4.10
2019-03-29T14:35:01.929Z,4.22
2019-03-29T14:37:36.472Z,4.30
2019-03-29T14:40:11.698Z,4.50
2019-03-29T14:42:44.786Z,4.33
2019-03-29T14:45:39.551Z,4.15
2019-03-29T14:48:10.740Z,4.75
2019-03-29T14:50:41.792Z,3.92
2019-03-29T14:53:12.905Z,4.25
2019-03-29T14:55:44.050Z,4.37
2019-03-29T14:58:15.228Z,4.50
2019-03-29T15:00:49.273Z,4.20
2019-03-29T15:03:24.575Z,4.10
2019-03-29T15:05:55.662Z,4.12
2019-03-29T15:08:28.378Z,4.03
2019-03-29T15:10:59.630Z,4.62
2019-03-29T15:13:30.548Z,4.20
2019-03-29T15:16:01.577Z,4.60
2019-03-29T15:18:32.472Z,4.35
2019-03-29T15:21:03.757Z,4.22
2019-03-29T15:23:34.703Z,4.72
2019-03-29T15:26:10.044Z,4.25
2019-03-29T15:28:41.347Z,5.00
2019-03-29T15:31:13.555Z,4.40
2019-03-29T15:33:48.402Z,4.12
2019-03-29T15:36:19.422Z,4.33
2019-03-29T15:38:50.975Z,4.53
2019-03-29T15:41:21.988Z,3.83
2019-03-29T15:43:53.737Z,4.00
2019-03-29T15:46:25.582Z,3.37
2019-03-29T15:48:56.625Z,3.35
2019-03-29T15:51:27.567Z,4.17
2019-03-29T15:53:58.594Z,4.58
2019-03-29T15:56:29.520Z,4.12
2019-03-29T15:59:00.394Z,3.87
2019-03-29T16:01:31.379Z,4.03
2019-03-29T16:04:02.286Z,4.80
2019-03-29T16:06:33.041Z,4.17
2019-03-29T16:09:04.791Z,4.28
2019-03-29T16:11:35.751Z,4.12
2019-03-29T16:14:06.642Z,4.05
2019-03-29T16:16:37.486Z,3.80
2019-03-29T16:19:08.341Z,4.70
2019-03-29T16:21:39.448Z,3.12
2019-03-29T16:24:10.327Z,3.35
2019-03-29T16:26:41.272Z,3.50
2019-03-29T16:29:12.173Z,3.42
2019-03-29T16:31:42.943Z,4.00
2019-03-29T16:34:13.796Z,3.55
2019-03-29T16:36:44.632Z,3.77
2019-03-29T16:39:15.559Z,3.45
2019-03-29T16:41:46.404Z,3.47
2019-03-29T16:44:17.237Z,3.20
2019-03-29T16:46:48.164Z,3.77
2019-03-29T16:49:19.043Z,3.50
2019-03-29T16:51:49.852Z,3.42
2019-03-29T16:54:20.843Z,3.30
2019-03-29T16:56:51.739Z,4.50
2019-03-29T16:59:22.618Z,3.90
2019-03-29T17:01:53.444Z,3.70
2019-03-29T17:04:24.321Z,3.85
2019-03-29T17:06:55.430Z,3.65
2019-03-29T17:09:26.213Z,3.52
2019-03-29T17:11:57.132Z,3.95
2019-03-29T17:14:27.963Z,3.65
2019-03-29T17:16:58.844Z,3.40
2019-03-29T17:19:29.710Z,3.75
2019-03-29T17:22:00.550Z,3.50
2019-03-29T17:24:31.422Z,3.27
2019-03-29T17:27:02.362Z,4.25
2019-03-29T17:29:33.343Z,3.95
2019-03-29T17:32:04.252Z,4.15
2019-03-29T17:34:35.164Z,3.60
2019-03-29T17:37:06.195Z,3.30
2019-03-29T17:39:37.276Z,3.55
2019-03-29T17:42:08.256Z,2.95
2019-03-29T17:44:39.213Z,3.58
2019-03-29T17:47:10.094Z,3.30
2019-03-29T17:49:41.074Z,3.60
2019-03-29T17:52:11.869Z,3.50
2019-03-29T17:54:43.760Z,3.27
2019-03-29T17:57:14.704Z,3.40
2019-03-29T17:59:45.613Z,3.50
2019-03-29T18:02:16.477Z,4.17
2019-03-29T18:04:47.338Z,10.70
2019-03-29T18:07:18.310Z,11.25
2019-03-29T18:09:49.340Z,8.13
2019-03-29T18:12:20.219Z,8.88
2019-03-29T18:14:51.071Z,5.78
2019-03-29T18:17:21.927Z,6.00
2019-03-29T18:19:52.812Z,8.13
2019-03-29T18:22:23.751Z,6.47
2019-03-29T18:24:54.707Z,6.35
2019-03-29T18:27:25.558Z,5.92
2019-03-29T18:29:56.432Z,6.28
2019-03-29T18:32:27.512Z,5.60
2019-03-29T18:34:58.541Z,5.80
2019-03-29T18:37:29.710Z,6.53
2019-03-29T18:40:00.752Z,5.58
2019-03-29T18:42:31.690Z,6.12
2019-03-29T18:45:02.630Z,5.20
2019-03-29T18:47:34.619Z,5.45
2019-03-29T18:50:05.727Z,5.28
2019-03-29T18:52:36.613Z,5.58
2019-03-29T18:55:07.833Z,5.70
2019-03-29T18:57:38.738Z,4.58
2019-03-29T19:00:09.793Z,5.37
2019-03-29T19:02:40.860Z,5.22
2019-03-29T19:05:17.248Z,4.90
2019-03-29T19:07:48.134Z,4.90
2019-03-29T19:10:18.965Z,5.03
2019-03-29T19:12:49.818Z,4.28
2019-03-29T19:15:20.619Z,4.20
2019-03-29T19:17:51.429Z,4.72
2019-03-29T19:20:27.700Z,5.05
2019-03-29T19:22:55.015Z,4.22
2019-03-29T19:25:25.941Z,4.20
2019-03-29T19:27:56.874Z,3.98
2019-03-29T19:30:27.747Z,4.75
2019-03-29T19:32:58.712Z,4.15
2019-03-29T19:35:29.522Z,3.90
2019-03-29T19:38:00.430Z,4.28
2019-03-29T19:40:31.265Z,3.95
2019-03-29T19:43:02.213Z,4.25
2019-03-29T19:45:34.618Z,3.60
2019-03-29T19:48:06.806Z,4.20
2019-03-29T19:50:37.790Z,3.95
2019-03-29T19:53:08.761Z,4.17
2019-03-29T19:55:39.713Z,4.72
2019-03-29T19:58:10.546Z,3.47
2019-03-29T20:00:42.512Z,4.05
2019-03-29T20:03:13.383Z,3.50
2019-03-29T20:05:44.266Z,3.83
2019-03-29T20:08:15.181Z,3.62
2019-03-29T20:10:45.988Z,3.58
2019-03-29T20:13:16.981Z,3.50
2019-03-29T20:15:48.368Z,3.83
2019-03-29T20:18:19.373Z,3.30
2019-03-29T20:20:50.287Z,3.30
2019-03-29T20:23:21.293Z,3.58
2019-03-29T20:25:52.364Z,4.00
2019-03-29T20:28:23.298Z,3.72
2019-03-29T20:30:54.229Z,4.15
2019-03-29T20:33:25.081Z,3.10
2019-03-29T20:35:55.980Z,3.58
2019-03-29T20:38:27.081Z,3.65
2019-03-29T20:40:58.165Z,3.70
2019-03-29T20:43:29.062Z,3.08
2019-03-29T20:45:59.906Z,3.45
2019-03-29T20:48:30.759Z,3.27
2019-03-29T20:51:01.616Z,3.40
2019-03-29T20:53:32.623Z,3.33
2019-03-29T20:56:06.389Z,3.70
2019-03-29T20:58:36.076Z,3.35
2019-03-29T21:01:07.972Z,3.33
2019-03-29T21:03:39.044Z,3.50
2019-03-29T21:06:09.876Z,3.50
2019-03-29T21:08:40.833Z,3.58
2019-03-29T21:11:11.761Z,3.08
2019-03-29T21:13:42.647Z,3.70
2019-03-29T21:16:13.536Z,3.05
2019-03-29T21:18:44.386Z,3.37
2019-03-29T21:21:15.250Z,3.00
2019-03-29T21:23:47.341Z,3.33
2019-03-29T21:26:18.386Z,3.20
2019-03-29T21:28:52.634Z,3.40
2019-03-29T21:31:21.730Z,3.30
2019-03-29T21:33:52.696Z,3.65
2019-03-29T21:36:23.677Z,3.17
2019-03-29T21:38:55.618Z,3.20
2019-03-29T21:41:26.517Z,3.52
2019-03-29T21:43:57.378Z,3.67
2019-03-29T21:46:28.412Z,3.22
2019-03-29T21:48:59.290Z,3.92
2019-03-29T21:51:30.243Z,3.55
2019-03-29T21:54:01.072Z,3.30
2019-03-29T21:56:32.051Z,3.15
2019-03-29T21:59:02.958Z,3.15
2019-03-29T22:01:33.837Z,3.20
2019-03-29T22:04:05.679Z,3.45
2019-03-29T22:06:36.520Z,3.60
2019-03-29T22:09:08.539Z,3.30
2019-03-29T22:11:39.395Z,3.15
2019-03-29T22:14:11.415Z,3.00
2019-03-29T22:16:42.322Z,3.35
2019-03-29T22:19:14.387Z,3.50
2019-03-29T22:21:46.191Z,3.52
2019-03-29T22:24:17.014Z,3.33
2019-03-29T22:26:47.967Z,3.52
2019-03-29T22:29:18.822Z,3.35
2019-03-29T22:31:51.991Z,3.50
2019-03-29T22:34:22.817Z,3.67
2019-03-29T22:36:53.724Z,3.10
2019-03-29T22:39:24.732Z,3.70
2019-03-29T22:41:55.609Z,3.37
2019-03-29T22:44:26.552Z,3.25
2019-03-29T22:46:57.496Z,3.55
2019-03-29T22:49:28.498Z,3.50
2019-03-29T22:51:59.436Z,3.30
2019-03-29T22:54:30.403Z,3.08
2019-03-29T22:57:01.261Z,3.40
2019-03-29T22:59:32.382Z,3.60
2019-03-29T23:02:03.590Z,3.52
2019-03-29T23:04:34.493Z,3.40
2019-03-29T23:07:05.458Z,3.35
2019-03-29T23:09:36.289Z,3.62
2019-03-29T23:12:08.313Z,3.33
2019-03-29T23:14:39.150Z,3.45
2019-03-29T23:17:10.075Z,3.35
2019-03-29T23:19:40.853Z,3.58
2019-03-29T23:22:11.728Z,3.42
2019-03-29T23:24:42.577Z,3.83
2019-03-29T23:27:13.493Z,3.50
2019-03-29T23:29:44.375Z,3.20
2019-03-29T23:32:15.396Z,3.50
2019-03-29T23:34:46.362Z,3.65
2019-03-29T23:37:18.487Z,3.70
2019-03-29T23:39:49.462Z,4.33
2019-03-29T23:42:20.256Z,3.58
2019-03-29T23:44:51.143Z,3.70
2019-03-29T23:47:21.991Z,4.10
2019-03-29T23:49:53.060Z,3.60
2019-03-29T23:52:34.980Z,3.35
2019-03-29T23:55:06.284Z,3.85
2019-03-29T23:57:37.130Z,3.50
